sensor_id;sensor_type;location;lat;lon;timestamp;P1;P2;P0
44933;PMS3003;30667;43.614;1.442;2023-06-22T00:01:21;6.00;6.00;2.00
44933;PMS3003;30667;43.614;1.442;2023-06-22T00:03:50;4.80;4.80;2.00
44933;PMS3003;30667;43.614;1.442;2023-06-22T00:06:15;5.00;5.00;2.00
44933;PMS3003;30667;43.614;1.442;2023-06-22T00:08:41;4.50;4.50;2.00
44933;PMS3003;30667;43.614;1.442;2023-06-22T00:11:06;6.00;5.25;2.00
44933;PMS3003;30667;43.614;1.442;2023-06-22T00:13:32;6.00;5.50;2.00
44933;PMS3003;30667;43.614;1.442;2023-06-22T00:15:57;6.00;5.00;3.00
44933;PMS3003;30667;43.614;1.442;2023-06-22T00:18:22;5.50;5.25;2.75
44933;PMS3003;30667;43.614;1.442;2023-06-22T00:20:52;6.80;6.00;2.20
44933;PMS3003;30667;43.614;1.442;2023-06-22T00:23:22;6.00;6.00;2.80
44933;PMS3003;30667;43.614;1.442;2023-06-22T00:25:48;7.00;5.60;2.00
44933;PMS3003;30667;43.614;1.442;2023-06-22T00:28:14;7.00;5.75;3.00
44933;PMS3003;30667;43.614;1.442;2023-06-22T00:30:40;6.75;5.75;2.00
44933;PMS3003;30667;43.614;1.442;2023-06-22T00:33:06;6.20;5.40;3.00
44933;PMS3003;30667;43.614;1.442;2023-06-22T00:35:32;5.80;5.40;2.80
44933;PMS3003;30667;43.614;1.442;2023-06-22T00:37:59;4.80;4.80;2.00
44933;PMS3003;30667;43.614;1.442;2023-06-22T00:40:30;6.20;5.20;2.20
44933;PMS3003;30667;43.614;1.442;2023-06-22T00:42:56;6.00;5.00;2.00
44933;PMS3003;30667;43.614;1.442;2023-06-22T00:45:22;5.20;5.00;1.80
44933;PMS3003;30667;43.614;1.442;2023-06-22T00:47:55;6.60;5.80;2.40
44933;PMS3003;30667;43.614;1.442;2023-06-22T00:50:23;6.80;6.00;3.00
44933;PMS3003;30667;43.614;1.442;2023-06-22T00:52:51;6.40;5.60;3.20
44933;PMS3003;30667;43.614;1.442;2023-06-22T00:55:19;8.00;5.80;2.80
44933;PMS3003;30667;43.614;1.442;2023-06-22T00:57:46;6.00;5.00;2.80
44933;PMS3003;30667;43.614;1.442;2023-06-22T01:00:13;6.40;6.40;3.00
44933;PMS3003;30667;43.614;1.442;2023-06-22T01:02:41;8.00;5.80;2.20
44933;PMS3003;30667;43.614;1.442;2023-06-22T01:05:10;6.80;6.60;2.80
44933;PMS3003;30667;43.614;1.442;2023-06-22T01:07:42;7.20;7.00;3.00
44933;PMS3003;30667;43.614;1.442;2023-06-22T01:13:01;6.20;6.20;3.00
44933;PMS3003;30667;43.614;1.442;2023-06-22T01:15:44;6.00;6.00;3.00
44933;PMS3003;30667;43.614;1.442;2023-06-22T01:18:14;5.00;5.00;2.00
44933;PMS3003;30667;43.614;1.442;2023-06-22T01:20:43;4.60;4.20;2.00
44933;PMS3003;30667;43.614;1.442;2023-06-22T01:28:57;4.00;3.00;1.00
44933;PMS3003;30667;43.614;1.442;2023-06-22T01:31:25;4.60;3.20;1.00
44933;PMS3003;30667;43.614;1.442;2023-06-22T01:33:53;2.40;2.40;0.00
44933;PMS3003;30667;43.614;1.442;2023-06-22T01:36:22;2.00;2.00;1.00
44933;PMS3003;30667;43.614;1.442;2023-06-22T01:38:49;2.00;2.00;0.40
44933;PMS3003;30667;43.614;1.442;2023-06-22T01:41:16;2.00;2.00;0.00
44933;PMS3003;30667;43.614;1.442;2023-06-22T01:43:42;3.00;3.00;0.00
44933;PMS3003;30667;43.614;1.442;2023-06-22T01:46:09;3.00;2.00;0.00
44933;PMS3003;30667;43.614;1.442;2023-06-22T01:48:36;2.00;2.00;0.00
44933;PMS3003;30667;43.614;1.442;2023-06-22T01:51:03;3.00;3.00;1.00
44933;PMS3003;30667;43.614;1.442;2023-06-22T01:53:28;2.25;2.25;0.00
44933;PMS3003;30667;43.614;1.442;2023-06-22T01:55:54;4.00;2.50;1.00
44933;PMS3003;30667;43.614;1.442;2023-06-22T01:58:21;5.60;3.00;0.00
44933;PMS3003;30667;43.614;1.442;2023-06-22T02:00:53;2.00;2.00;1.00
44933;PMS3003;30667;43.614;1.442;2023-06-22T02:03:26;2.00;2.00;0.00
44933;PMS3003;30667;43.614;1.442;2023-06-22T02:05:58;3.60;3.00;0.00
44933;PMS3003;30667;43.614;1.442;2023-06-22T02:08:29;1.60;1.60;0.00
44933;PMS3003;30667;43.614;1.442;2023-06-22T02:10:57;2.00;2.00;0.00
44933;PMS3003;30667;43.614;1.442;2023-06-22T02:13:25;2.20;2.00;0.00
44933;PMS3003;30667;43.614;1.442;2023-06-22T02:15:51;1.20;1.20;0.00
44933;PMS3003;30667;43.614;1.442;2023-06-22T02:18:16;2.00;2.00;1.00
44933;PMS3003;30667;43.614;1.442;2023-06-22T02:20:42;2.75;2.00;0.00
44933;PMS3003;30667;43.614;1.442;2023-06-22T02:23:07;1.25;1.25;0.00
44933;PMS3003;30667;43.614;1.442;2023-06-22T02:25:34;2.00;2.00;0.00
44933;PMS3003;30667;43.614;1.442;2023-06-22T02:28:00;2.40;2.00;0.00
44933;PMS3003;30667;43.614;1.442;2023-06-22T02:30:26;1.80;1.60;0.00
44933;PMS3003;30667;43.614;1.442;2023-06-22T02:32:52;1.75;1.75;0.00
44933;PMS3003;30667;43.614;1.442;2023-06-22T02:35:24;2.20;1.80;0.00
44933;PMS3003;30667;43.614;1.442;2023-06-22T02:37:50;3.00;3.00;0.60
44933;PMS3003;30667;43.614;1.442;2023-06-22T02:40:17;2.00;2.00;0.00
44933;PMS3003;30667;43.614;1.442;2023-06-22T02:42:42;2.60;2.00;0.00
44933;PMS3003;30667;43.614;1.442;2023-06-22T02:45:08;1.75;1.75;0.00
44933;PMS3003;30667;43.614;1.442;2023-06-22T02:47:34;2.80;2.80;0.00
44933;PMS3003;30667;43.614;1.442;2023-06-22T02:49:59;2.00;2.00;0.00
44933;PMS3003;30667;43.614;1.442;2023-06-22T02:52:26;3.00;3.00;1.00
44933;PMS3003;30667;43.614;1.442;2023-06-22T02:54:51;3.00;2.75;0.50
44933;PMS3003;30667;43.614;1.442;2023-06-22T02:57:17;2.25;2.00;0.00
44933;PMS3003;30667;43.614;1.442;2023-06-22T02:59:42;2.25;2.25;1.00
44933;PMS3003;30667;43.614;1.442;2023-06-22T03:02:08;3.75;3.00;0.00
44933;PMS3003;30667;43.614;1.442;2023-06-22T03:04:34;3.60;3.60;1.00
44933;PMS3003;30667;43.614;1.442;2023-06-22T03:07:00;3.00;3.00;1.00
44933;PMS3003;30667;43.614;1.442;2023-06-22T03:09:26;3.00;3.00;1.00
44933;PMS3003;30667;43.614;1.442;2023-06-22T03:11:53;3.00;3.00;0.80
44933;PMS3003;30667;43.614;1.442;2023-06-22T03:14:19;3.00;2.80;0.40
44933;PMS3003;30667;43.614;1.442;2023-06-22T03:16:44;4.00;4.00;1.00
44933;PMS3003;30667;43.614;1.442;2023-06-22T03:19:10;3.75;3.00;1.00
44933;PMS3003;30667;43.614;1.442;2023-06-22T03:21:36;4.00;3.00;1.00
44933;PMS3003;30667;43.614;1.442;2023-06-22T03:24:03;2.00;2.00;0.60
44933;PMS3003;30667;43.614;1.442;2023-06-22T03:26:30;3.00;3.00;0.80
44933;PMS3003;30667;43.614;1.442;2023-06-22T03:28:55;4.00;3.00;1.00
44933;PMS3003;30667;43.614;1.442;2023-06-22T03:31:21;3.00;3.00;1.00
44933;PMS3003;30667;43.614;1.442;2023-06-22T03:33:47;3.00;3.00;1.00
44933;PMS3003;30667;43.614;1.442;2023-06-22T03:36:14;4.00;3.80;1.00
44933;PMS3003;30667;43.614;1.442;2023-06-22T03:38:44;3.00;3.00;1.00
44933;PMS3003;30667;43.614;1.442;2023-06-22T03:41:10;5.00;4.00;2.00
44933;PMS3003;30667;43.614;1.442;2023-06-22T03:43:36;4.00;4.00;1.00
44933;PMS3003;30667;43.614;1.442;2023-06-22T03:46:01;4.75;4.00;1.00
44933;PMS3003;30667;43.614;1.442;2023-06-22T03:48:26;3.00;3.00;1.75
44933;PMS3003;30667;43.614;1.442;2023-06-22T03:50:52;7.25;5.75;1.50
44933;PMS3003;30667;43.614;1.442;2023-06-22T03:53:17;6.00;5.00;2.75
44933;PMS3003;30667;43.614;1.442;2023-06-22T03:55:52;6.00;6.00;3.00
44933;PMS3003;30667;43.614;1.442;2023-06-22T03:58:18;5.40;5.00;2.20
44933;PMS3003;30667;43.614;1.442;2023-06-22T04:00:45;6.20;5.40;2.80
44933;PMS3003;30667;43.614;1.442;2023-06-22T04:03:11;6.20;6.20;2.80
44933;PMS3003;30667;43.614;1.442;2023-06-22T04:05:38;6.00;5.75;2.00
44933;PMS3003;30667;43.614;1.442;2023-06-22T04:08:04;7.00;5.80;2.40
44933;PMS3003;30667;43.614;1.442;2023-06-22T04:10:30;7.60;6.00;2.80
44933;PMS3003;30667;43.614;1.442;2023-06-22T04:12:55;6.50;6.50;3.75
44933;PMS3003;30667;43.614;1.442;2023-06-22T04:15:21;8.80;7.00;3.00
44933;PMS3003;30667;43.614;1.442;2023-06-22T04:17:47;5.75;5.50;3.00
44933;PMS3003;30667;43.614;1.442;2023-06-22T04:20:12;7.75;6.50;3.00
44933;PMS3003;30667;43.614;1.442;2023-06-22T04:22:37;7.00;7.00;3.75
44933;PMS3003;30667;43.614;1.442;2023-06-22T04:25:03;5.25;5.25;3.00
44933;PMS3003;30667;43.614;1.442;2023-06-22T04:27:28;7.50;6.75;3.75
44933;PMS3003;30667;43.614;1.442;2023-06-22T04:29:54;7.50;6.75;3.25
44933;PMS3003;30667;43.614;1.442;2023-06-22T04:32:19;8.50;7.50;4.00
44933;PMS3003;30667;43.614;1.442;2023-06-22T04:34:45;7.00;6.75;3.00
44933;PMS3003;30667;43.614;1.442;2023-06-22T04:37:10;8.00;7.00;3.00
44933;PMS3003;30667;43.614;1.442;2023-06-22T04:39:40;7.60;6.40;3.00
44933;PMS3003;30667;43.614;1.442;2023-06-22T04:42:06;6.00;6.00;3.00
44933;PMS3003;30667;43.614;1.442;2023-06-22T04:44:32;7.00;7.00;4.00
44933;PMS3003;30667;43.614;1.442;2023-06-22T04:46:58;6.25;6.25;3.75
44933;PMS3003;30667;43.614;1.442;2023-06-22T04:49:29;5.20;5.20;3.00
44933;PMS3003;30667;43.614;1.442;2023-06-22T04:51:59;8.60;7.60;4.00
44933;PMS3003;30667;43.614;1.442;2023-06-22T04:54:25;7.00;6.80;3.80
44933;PMS3003;30667;43.614;1.442;2023-06-22T04:56:50;8.80;7.60;3.00
44933;PMS3003;30667;43.614;1.442;2023-06-22T04:59:21;6.40;6.00;3.00
44933;PMS3003;30667;43.614;1.442;2023-06-22T05:01:47;7.00;7.00;3.80
44933;PMS3003;30667;43.614;1.442;2023-06-22T05:04:12;8.00;8.00;4.00
44933;PMS3003;30667;43.614;1.442;2023-06-22T05:06:38;7.25;6.00;3.50
44933;PMS3003;30667;43.614;1.442;2023-06-22T05:09:03;6.25;6.00;3.00
44933;PMS3003;30667;43.614;1.442;2023-06-22T05:11:30;7.80;7.20;3.20
44933;PMS3003;30667;43.614;1.442;2023-06-22T05:13:55;9.00;9.00;4.00
44933;PMS3003;30667;43.614;1.442;2023-06-22T05:16:21;6.75;6.50;3.00
44933;PMS3003;30667;43.614;1.442;2023-06-22T05:18:52;9.00;8.00;4.20
44933;PMS3003;30667;43.614;1.442;2023-06-22T05:21:21;10.60;10.40;4.40
44933;PMS3003;30667;43.614;1.442;2023-06-22T05:23:48;7.60;6.60;4.00
44933;PMS3003;30667;43.614;1.442;2023-06-22T05:26:14;9.00;7.00;4.00
44933;PMS3003;30667;43.614;1.442;2023-06-22T05:28:39;8.00;8.00;5.00
44933;PMS3003;30667;43.614;1.442;2023-06-22T05:31:05;8.50;7.75;3.00
44933;PMS3003;30667;43.614;1.442;2023-06-22T05:33:30;6.50;6.50;4.50
44933;PMS3003;30667;43.614;1.442;2023-06-22T05:35:55;9.50;9.00;5.00
44933;PMS3003;30667;43.614;1.442;2023-06-22T05:38:21;9.00;8.75;4.00
44933;PMS3003;30667;43.614;1.442;2023-06-22T05:40:46;7.75;7.50;4.00
44933;PMS3003;30667;43.614;1.442;2023-06-22T05:43:12;9.00;9.00;5.00
44933;PMS3003;30667;43.614;1.442;2023-06-22T05:45:37;8.50;8.25;4.25
44933;PMS3003;30667;43.614;1.442;2023-06-22T05:48:02;11.00;10.00;6.00
44933;PMS3003;30667;43.614;1.442;2023-06-22T05:50:28;13.50;10.75;5.75
44933;PMS3003;30667;43.614;1.442;2023-06-22T05:52:53;9.00;8.25;4.50
44933;PMS3003;30667;43.614;1.442;2023-06-22T05:55:19;8.75;8.00;5.00
44933;PMS3003;30667;43.614;1.442;2023-06-22T05:57:44;11.50;10.50;6.00
44933;PMS3003;30667;43.614;1.442;2023-06-22T06:00:10;12.00;11.00;6.00
44933;PMS3003;30667;43.614;1.442;2023-06-22T06:02:37;10.40;9.40;6.00
44933;PMS3003;30667;43.614;1.442;2023-06-22T06:05:06;9.40;8.80;5.40
44933;PMS3003;30667;43.614;1.442;2023-06-22T06:07:32;11.00;11.00;6.00
44933;PMS3003;30667;43.614;1.442;2023-06-22T06:09:59;11.20;10.20;6.40
44933;PMS3003;30667;43.614;1.442;2023-06-22T06:12:24;11.25;11.00;6.75
44933;PMS3003;30667;43.614;1.442;2023-06-22T06:14:50;10.75;10.00;6.50
44933;PMS3003;30667;43.614;1.442;2023-06-22T06:17:16;11.00;9.00;5.80
44933;PMS3003;30667;43.614;1.442;2023-06-22T06:19:41;11.00;10.50;6.00
44933;PMS3003;30667;43.614;1.442;2023-06-22T06:22:07;10.50;10.25;5.75
44933;PMS3003;30667;43.614;1.442;2023-06-22T06:24:32;11.25;11.00;6.00
44933;PMS3003;30667;43.614;1.442;2023-06-22T06:26:58;12.50;12.00;7.00
44933;PMS3003;30667;43.614;1.442;2023-06-22T06:29:23;12.00;10.25;5.00
44933;PMS3003;30667;43.614;1.442;2023-06-22T06:31:48;9.75;9.25;5.75
44933;PMS3003;30667;43.614;1.442;2023-06-22T06:34:14;13.25;12.25;7.75
44933;PMS3003;30667;43.614;1.442;2023-06-22T06:36:39;11.25;10.00;5.75
44933;PMS3003;30667;43.614;1.442;2023-06-22T06:39:05;12.25;11.00;6.00
44933;PMS3003;30667;43.614;1.442;2023-06-22T06:41:30;11.00;11.00;6.50
44933;PMS3003;30667;43.614;1.442;2023-06-22T06:43:56;12.25;10.75;6.25
44933;PMS3003;30667;43.614;1.442;2023-06-22T06:46:21;12.00;12.00;7.00
44933;PMS3003;30667;43.614;1.442;2023-06-22T06:48:46;12.00;12.00;7.00
44933;PMS3003;30667;43.614;1.442;2023-06-22T06:51:12;13.50;11.75;7.00
44933;PMS3003;30667;43.614;1.442;2023-06-22T06:53:37;12.75;11.25;7.00
44933;PMS3003;30667;43.614;1.442;2023-06-22T06:56:03;12.25;11.50;8.00
44933;PMS3003;30667;43.614;1.442;2023-06-22T06:58:30;12.00;11.60;7.00
44933;PMS3003;30667;43.614;1.442;2023-06-22T07:00:56;11.00;10.50;7.00
44933;PMS3003;30667;43.614;1.442;2023-06-22T07:03:21;11.50;11.00;7.00
44933;PMS3003;30667;43.614;1.442;2023-06-22T07:05:46;14.00;12.75;7.00
44933;PMS3003;30667;43.614;1.442;2023-06-22T07:08:12;12.50;11.50;6.50
44933;PMS3003;30667;43.614;1.442;2023-06-22T07:10:37;13.00;11.75;7.00
44933;PMS3003;30667;43.614;1.442;2023-06-22T07:13:02;15.50;13.00;7.25
44933;PMS3003;30667;43.614;1.442;2023-06-22T07:15:28;12.25;10.25;6.50
44933;PMS3003;30667;43.614;1.442;2023-06-22T07:17:53;10.25;10.25;6.00
44933;PMS3003;30667;43.614;1.442;2023-06-22T07:20:18;11.25;11.25;6.50
44933;PMS3003;30667;43.614;1.442;2023-06-22T07:22:44;11.20;10.20;6.00
44933;PMS3003;30667;43.614;1.442;2023-06-22T07:25:10;9.75;9.00;5.75
44933;PMS3003;30667;43.614;1.442;2023-06-22T07:27:39;11.00;10.60;6.00
44933;PMS3003;30667;43.614;1.442;2023-06-22T07:30:10;11.00;10.20;6.00
44933;PMS3003;30667;43.614;1.442;2023-06-22T07:32:36;11.40;10.00;6.00
44933;PMS3003;30667;43.614;1.442;2023-06-22T07:35:02;11.50;11.25;6.50
44933;PMS3003;30667;43.614;1.442;2023-06-22T07:37:29;10.20;10.20;6.00
44933;PMS3003;30667;43.614;1.442;2023-06-22T07:39:57;12.25;10.25;5.00
44933;PMS3003;30667;43.614;1.442;2023-06-22T07:42:26;10.60;10.00;6.00
44933;PMS3003;30667;43.614;1.442;2023-06-22T07:44:52;8.40;8.00;4.00
44933;PMS3003;30667;43.614;1.442;2023-06-22T07:47:17;6.80;6.80;4.00
44933;PMS3003;30667;43.614;1.442;2023-06-22T07:49:44;8.00;6.40;3.20
44933;PMS3003;30667;43.614;1.442;2023-06-22T07:52:10;7.20;6.80;3.60
44933;PMS3003;30667;43.614;1.442;2023-06-22T07:54:36;6.00;6.00;3.25
44933;PMS3003;30667;43.614;1.442;2023-06-22T07:57:01;8.00;8.00;4.00
44933;PMS3003;30667;43.614;1.442;2023-06-22T07:59:27;7.00;6.00;3.00
44933;PMS3003;30667;43.614;1.442;2023-06-22T08:01:52;6.00;6.00;3.00
44933;PMS3003;30667;43.614;1.442;2023-06-22T08:04:18;8.40;6.80;4.00
44933;PMS3003;30667;43.614;1.442;2023-06-22T08:06:44;9.00;7.75;3.25
44933;PMS3003;30667;43.614;1.442;2023-06-22T08:09:09;6.50;6.50;3.50
44933;PMS3003;30667;43.614;1.442;2023-06-22T08:11:34;7.25;7.00;3.50
44933;PMS3003;30667;43.614;1.442;2023-06-22T08:14:00;6.50;6.00;3.00
44933;PMS3003;30667;43.614;1.442;2023-06-22T08:16:25;8.75;8.00;4.75
44933;PMS3003;30667;43.614;1.442;2023-06-22T08:18:51;9.50;8.75;3.50
44933;PMS3003;30667;43.614;1.442;2023-06-22T08:21:16;9.75;9.00;5.00
44933;PMS3003;30667;43.614;1.442;2023-06-22T08:23:41;8.50;8.00;5.00
44933;PMS3003;30667;43.614;1.442;2023-06-22T08:26:07;10.00;10.00;5.00
44933;PMS3003;30667;43.614;1.442;2023-06-22T08:28:32;7.25;7.25;4.00
44933;PMS3003;30667;43.614;1.442;2023-06-22T08:30:59;8.50;8.00;3.50
44933;PMS3003;30667;43.614;1.442;2023-06-22T08:33:25;8.20;7.80;4.00
44933;PMS3003;30667;43.614;1.442;2023-06-22T08:35:53;8.40;8.00;4.00
44933;PMS3003;30667;43.614;1.442;2023-06-22T08:38:19;8.60;8.20;4.80
44933;PMS3003;30667;43.614;1.442;2023-06-22T08:40:45;9.75;7.00;4.25
44933;PMS3003;30667;43.614;1.442;2023-06-22T08:43:10;8.25;8.25;4.00
44933;PMS3003;30667;43.614;1.442;2023-06-22T08:45:36;8.00;7.60;4.00
44933;PMS3003;30667;43.614;1.442;2023-06-22T08:48:01;6.75;6.75;3.25
44933;PMS3003;30667;43.614;1.442;2023-06-22T08:50:27;7.00;7.00;4.00
44933;PMS3003;30667;43.614;1.442;2023-06-22T08:52:53;8.75;7.00;3.00
44933;PMS3003;30667;43.614;1.442;2023-06-22T08:55:18;7.00;6.75;3.00
44933;PMS3003;30667;43.614;1.442;2023-06-22T08:57:43;7.75;7.00;2.50
44933;PMS3003;30667;43.614;1.442;2023-06-22T09:00:09;7.00;6.00;3.00
44933;PMS3003;30667;43.614;1.442;2023-06-22T09:02:42;7.00;6.20;3.00
44933;PMS3003;30667;43.614;1.442;2023-06-22T09:05:09;8.40;8.00;4.00
44933;PMS3003;30667;43.614;1.442;2023-06-22T09:07:34;8.00;7.00;3.00
44933;PMS3003;30667;43.614;1.442;2023-06-22T09:10:00;8.00;6.25;3.75
44933;PMS3003;30667;43.614;1.442;2023-06-22T09:12:25;8.75;8.75;4.75
44933;PMS3003;30667;43.614;1.442;2023-06-22T09:14:52;6.40;6.00;4.00
44933;PMS3003;30667;43.614;1.442;2023-06-22T09:17:18;7.00;6.80;3.80
44933;PMS3003;30667;43.614;1.442;2023-06-22T09:19:44;7.50;7.00;3.00
44933;PMS3003;30667;43.614;1.442;2023-06-22T09:22:09;8.00;7.25;4.00
44933;PMS3003;30667;43.614;1.442;2023-06-22T09:24:35;8.50;8.00;4.00
44933;PMS3003;30667;43.614;1.442;2023-06-22T09:27:00;10.00;8.00;4.00
44933;PMS3003;30667;43.614;1.442;2023-06-22T09:29:26;8.75;8.75;4.00
44933;PMS3003;30667;43.614;1.442;2023-06-22T09:31:51;7.25;7.00;3.00
44933;PMS3003;30667;43.614;1.442;2023-06-22T09:34:18;9.40;9.00;5.00
44933;PMS3003;30667;43.614;1.442;2023-06-22T09:36:45;10.80;8.40;4.40
44933;PMS3003;30667;43.614;1.442;2023-06-22T09:39:11;9.40;8.40;3.00
44933;PMS3003;30667;43.614;1.442;2023-06-22T09:41:36;9.25;8.50;4.50
44933;PMS3003;30667;43.614;1.442;2023-06-22T09:44:02;8.75;8.75;5.00
44933;PMS3003;30667;43.614;1.442;2023-06-22T09:46:27;11.25;9.00;4.00
44933;PMS3003;30667;43.614;1.442;2023-06-22T09:48:55;7.40;7.40;4.00
44933;PMS3003;30667;43.614;1.442;2023-06-22T09:51:21;9.75;8.00;4.00
44933;PMS3003;30667;43.614;1.442;2023-06-22T09:53:54;9.60;8.40;4.00
44933;PMS3003;30667;43.614;1.442;2023-06-22T09:56:20;10.20;7.00;3.80
44933;PMS3003;30667;43.614;1.442;2023-06-22T09:58:46;9.50;8.50;4.00
44933;PMS3003;30667;43.614;1.442;2023-06-22T10:01:11;9.40;9.00;5.00
44933;PMS3003;30667;43.614;1.442;2023-06-22T10:03:39;7.60;7.00;3.00
44933;PMS3003;30667;43.614;1.442;2023-06-22T10:06:06;8.20;8.20;4.00
44933;PMS3003;30667;43.614;1.442;2023-06-22T10:08:32;9.00;9.00;4.00
44933;PMS3003;30667;43.614;1.442;2023-06-22T10:11:00;9.20;8.20;4.40
44933;PMS3003;30667;43.614;1.442;2023-06-22T10:13:26;11.00;9.50;5.00
44933;PMS3003;30667;43.614;1.442;2023-06-22T10:15:51;9.25;8.25;5.00
44933;PMS3003;30667;43.614;1.442;2023-06-22T10:18:18;8.80;8.80;5.00
44933;PMS3003;30667;43.614;1.442;2023-06-22T10:20:44;8.00;8.00;4.00
44933;PMS3003;30667;43.614;1.442;2023-06-22T10:23:12;10.60;9.20;4.00
44933;PMS3003;30667;43.614;1.442;2023-06-22T10:25:37;8.75;7.50;4.25
44933;PMS3003;30667;43.614;1.442;2023-06-22T10:28:03;6.75;6.75;4.00
44933;PMS3003;30667;43.614;1.442;2023-06-22T10:30:28;8.25;8.00;4.25
44933;PMS3003;30667;43.614;1.442;2023-06-22T10:32:54;8.00;7.50;4.00
44933;PMS3003;30667;43.614;1.442;2023-06-22T10:35:19;7.75;7.00;4.00
44933;PMS3003;30667;43.614;1.442;2023-06-22T10:37:45;8.25;8.25;4.00
44933;PMS3003;30667;43.614;1.442;2023-06-22T10:40:12;8.80;8.00;4.00
44933;PMS3003;30667;43.614;1.442;2023-06-22T10:42:38;9.60;9.20;4.40
44933;PMS3003;30667;43.614;1.442;2023-06-22T10:45:04;8.25;7.50;4.00
44933;PMS3003;30667;43.614;1.442;2023-06-22T10:47:30;8.60;8.40;4.60
44933;PMS3003;30667;43.614;1.442;2023-06-22T10:49:55;10.50;8.50;5.00
44933;PMS3003;30667;43.614;1.442;2023-06-22T10:52:21;10.00;8.00;5.00
44933;PMS3003;30667;43.614;1.442;2023-06-22T10:54:46;16.25;14.75;9.50
44933;PMS3003;30667;43.614;1.442;2023-06-22T10:57:11;10.75;8.25;5.00
44933;PMS3003;30667;43.614;1.442;2023-06-22T10:59:37;6.50;6.25;3.50
44933;PMS3003;30667;43.614;1.442;2023-06-22T11:02:02;6.75;6.75;3.75
44933;PMS3003;30667;43.614;1.442;2023-06-22T11:04:28;6.75;6.75;4.00
44933;PMS3003;30667;43.614;1.442;2023-06-22T11:06:53;7.00;7.00;4.00
44933;PMS3003;30667;43.614;1.442;2023-06-22T11:09:19;6.75;6.75;3.50
44933;PMS3003;30667;43.614;1.442;2023-06-22T11:11:46;9.00;8.20;4.20
44933;PMS3003;30667;43.614;1.442;2023-06-22T11:14:12;8.20;7.00;3.40
44933;PMS3003;30667;43.614;1.442;2023-06-22T11:16:38;9.20;9.00;5.00
44933;PMS3003;30667;43.614;1.442;2023-06-22T11:19:04;17.50;16.25;11.25
44933;PMS3003;30667;43.614;1.442;2023-06-22T11:21:30;11.20;10.20;6.00
44933;PMS3003;30667;43.614;1.442;2023-06-22T11:23:57;9.80;8.60;5.00
44933;PMS3003;30667;43.614;1.442;2023-06-22T11:26:23;11.40;10.40;5.80
44933;PMS3003;30667;43.614;1.442;2023-06-22T11:28:49;9.00;8.00;4.00
44933;PMS3003;30667;43.614;1.442;2023-06-22T11:31:15;11.00;10.00;5.00
44933;PMS3003;30667;43.614;1.442;2023-06-22T11:33:40;9.25;8.50;4.75
44933;PMS3003;30667;43.614;1.442;2023-06-22T11:36:05;8.00;7.25;3.00
44933;PMS3003;30667;43.614;1.442;2023-06-22T11:38:31;7.25;7.25;4.00
44933;PMS3003;30667;43.614;1.442;2023-06-22T11:40:59;8.75;8.75;4.00
44933;PMS3003;30667;43.614;1.442;2023-06-22T11:43:25;9.00;7.20;4.00
44933;PMS3003;30667;43.614;1.442;2023-06-22T11:45:50;7.75;7.50;3.75
44933;PMS3003;30667;43.614;1.442;2023-06-22T11:48:19;6.80;6.80;4.00
44933;PMS3003;30667;43.614;1.442;2023-06-22T11:50:48;8.40;8.40;4.60
44933;PMS3003;30667;43.614;1.442;2023-06-22T11:53:13;7.00;6.00;3.20
44933;PMS3003;30667;43.614;1.442;2023-06-22T11:55:49;9.20;7.00;4.00
44933;PMS3003;30667;43.614;1.442;2023-06-22T11:58:24;9.20;8.40;4.00
44933;PMS3003;30667;43.614;1.442;2023-06-22T12:00:50;9.00;8.25;4.00
44933;PMS3003;30667;43.614;1.442;2023-06-22T12:03:17;6.80;6.20;3.00
44933;PMS3003;30667;43.614;1.442;2023-06-22T12:05:42;7.00;7.00;3.20
44933;PMS3003;30667;43.614;1.442;2023-06-22T12:08:08;7.00;7.00;3.00
44933;PMS3003;30667;43.614;1.442;2023-06-22T12:10:34;8.00;7.00;4.00
44933;PMS3003;30667;43.614;1.442;2023-06-22T12:12:59;7.00;7.00;3.00
44933;PMS3003;30667;43.614;1.442;2023-06-22T12:15:25;7.00;6.50;3.00
44933;PMS3003;30667;43.614;1.442;2023-06-22T12:17:51;8.40;8.00;4.00
44933;PMS3003;30667;43.614;1.442;2023-06-22T12:20:20;8.00;8.00;4.00
44933;PMS3003;30667;43.614;1.442;2023-06-22T12:22:46;7.00;7.00;3.00
44933;PMS3003;30667;43.614;1.442;2023-06-22T12:25:12;7.00;6.80;4.00
44933;PMS3003;30667;43.614;1.442;2023-06-22T12:27:37;8.75;7.25;3.00
44933;PMS3003;30667;43.614;1.442;2023-06-22T12:30:03;9.00;7.00;3.00
44933;PMS3003;30667;43.614;1.442;2023-06-22T12:32:29;5.80;5.40;2.20
44933;PMS3003;30667;43.614;1.442;2023-06-22T12:34:55;6.00;6.00;2.50
44933;PMS3003;30667;43.614;1.442;2023-06-22T12:37:21;6.20;6.20;3.80
44933;PMS3003;30667;43.614;1.442;2023-06-22T12:39:46;4.75;4.75;2.00
44933;PMS3003;30667;43.614;1.442;2023-06-22T12:42:12;6.50;6.25;3.50
44933;PMS3003;30667;43.614;1.442;2023-06-22T12:44:37;5.00;5.00;2.00
44933;PMS3003;30667;43.614;1.442;2023-06-22T12:47:03;9.60;6.60;2.00
44933;PMS3003;30667;43.614;1.442;2023-06-22T12:49:29;5.75;5.25;2.25
44933;PMS3003;30667;43.614;1.442;2023-06-22T12:51:54;7.25;6.00;2.00
44933;PMS3003;30667;43.614;1.442;2023-06-22T12:54:20;7.00;6.00;3.00
44933;PMS3003;30667;43.614;1.442;2023-06-22T12:56:45;6.25;5.00;2.00
44933;PMS3003;30667;43.614;1.442;2023-06-22T12:59:11;6.00;5.75;3.00
44933;PMS3003;30667;43.614;1.442;2023-06-22T13:01:36;6.25;5.75;3.00
44933;PMS3003;30667;43.614;1.442;2023-06-22T13:04:02;7.00;6.00;3.00
44933;PMS3003;30667;43.614;1.442;2023-06-22T13:06:28;6.60;6.20;3.00
44933;PMS3003;30667;43.614;1.442;2023-06-22T13:08:53;7.75;6.00;3.00
44933;PMS3003;30667;43.614;1.442;2023-06-22T13:11:19;6.75;6.75;3.00
44933;PMS3003;30667;43.614;1.442;2023-06-22T13:13:45;8.00;7.00;3.50
44933;PMS3003;30667;43.614;1.442;2023-06-22T13:16:11;5.40;4.40;2.00
44933;PMS3003;30667;43.614;1.442;2023-06-22T13:18:36;5.00;5.00;2.00
44933;PMS3003;30667;43.614;1.442;2023-06-22T13:21:02;6.75;6.25;3.00
44933;PMS3003;30667;43.614;1.442;2023-06-22T13:23:28;7.80;7.20;3.60
44933;PMS3003;30667;43.614;1.442;2023-06-22T13:25:54;7.00;6.75;3.75
44933;PMS3003;30667;43.614;1.442;2023-06-22T13:28:20;6.00;6.00;3.00
44933;PMS3003;30667;43.614;1.442;2023-06-22T13:30:46;7.00;6.00;3.00
44933;PMS3003;30667;43.614;1.442;2023-06-22T13:33:15;8.00;7.40;4.00
44933;PMS3003;30667;43.614;1.442;2023-06-22T13:35:40;7.80;7.80;4.00
44933;PMS3003;30667;43.614;1.442;2023-06-22T13:38:09;7.00;7.00;4.00
44933;PMS3003;30667;43.614;1.442;2023-06-22T13:40:35;7.00;7.00;3.75
44933;PMS3003;30667;43.614;1.442;2023-06-22T13:43:02;6.80;6.80;3.40
44933;PMS3003;30667;43.614;1.442;2023-06-22T13:45:28;7.75;7.75;4.00
44933;PMS3003;30667;43.614;1.442;2023-06-22T13:47:53;8.00;7.75;3.75
44933;PMS3003;30667;43.614;1.442;2023-06-22T13:50:19;6.00;6.00;3.00
44933;PMS3003;30667;43.614;1.442;2023-06-22T13:52:44;9.00;7.25;4.00
44933;PMS3003;30667;43.614;1.442;2023-06-22T13:55:10;7.00;7.00;4.00
44933;PMS3003;30667;43.614;1.442;2023-06-22T13:57:35;7.00;6.50;3.00
44933;PMS3003;30667;43.614;1.442;2023-06-22T14:00:02;7.20;6.80;3.20
44933;PMS3003;30667;43.614;1.442;2023-06-22T14:02:30;6.60;6.00;3.00
44933;PMS3003;30667;43.614;1.442;2023-06-22T14:04:55;7.00;7.00;5.00
44933;PMS3003;30667;43.614;1.442;2023-06-22T14:07:21;6.50;6.25;3.75
44933;PMS3003;30667;43.614;1.442;2023-06-22T14:09:46;7.75;7.75;3.25
44933;PMS3003;30667;43.614;1.442;2023-06-22T14:12:12;9.00;9.00;5.25
44933;PMS3003;30667;43.614;1.442;2023-06-22T14:14:37;8.25;8.00;4.00
44933;PMS3003;30667;43.614;1.442;2023-06-22T14:17:03;8.50;8.50;4.00
44933;PMS3003;30667;43.614;1.442;2023-06-22T14:19:29;8.00;8.00;4.60
44933;PMS3003;30667;43.614;1.442;2023-06-22T14:21:54;8.75;7.75;4.75